• Join FlightAware (Why Join?)
  • Login
  • US Flag 
Rudolph Flight #1: Arrived! 
08:12PM EST


 

Airport Tracker/Info


-or-


 

Live Flight TrackerFlight Track Log ✈ FFT815 ✈ 10-May-2013 ✈ KMCI - KDEN

Flight Track Log - Related Links

Times and Time Zones

All times are in EDT time to prevent confusion due to time zone crossing. See the FFT815 flight status page for this flight to view local times or setup timezone preferences in your user account.

Time Position Orientation Groundspeed Altitude Reporting Facility
EDT Latitude Longitude Course Direction KTS MPH feet Rate Location/Type
07:29AM 39.3167 -94.7000 322° Northwest 129 148 1,600  Level Kansas City TRACON
07:30AM 39.3500 -94.7333 322° Northwest 175 201 3,200 1,620 Climbing Kansas City TRACON
07:31AM 39.3419 -94.7453 229° Southwest 190 219 3,700 2,340 Climbing Kansas City Center
07:32AM 39.3281 -94.8303 258° West 252 290 6,200 2,820 Climbing Kansas City Center
07:33AM 39.3139 -94.9244 259° West 277 319 9,500 3,000 Climbing Kansas City Center
07:34AM 39.2947 -95.0475 259° West 314 361 12,300 3,000 Climbing Kansas City Center
07:35AM 39.2753 -95.1675 258° West 338 389 15,600 2,820 Climbing Kansas City Center
07:36AM 39.2547 -95.2878 258° West 345 397 18,100 2,460 Climbing Kansas City Center
07:37AM 39.2144 -95.4164 248° West 361 415 20,700 2,280 Climbing Kansas City Center
07:38AM 39.1756 -95.5411 248° West 372 428 22,800 2,640 Climbing Kansas City Center
07:39AM 39.1458 -95.6594 252° West 363 418 26,100 2,820 Climbing Kansas City Center
07:40AM 39.1433 -95.7764 268° West 342 394 28,500 2,280 Climbing Kansas City Center
07:41AM 39.1406 -95.9131 269° West 341 392 30,700 1,740 Climbing Kansas City Center
07:42AM 39.1375 -96.0286 268° West 338 389 32,100 1,140 Climbing Kansas City Center
07:43AM 39.1339 -96.1506 268° West 350 403 33,100 1,020 Climbing Kansas City Center
07:44AM 39.1303 -96.2964 268° West 368 423 34,200 960 Climbing Kansas City Center
07:45AM 39.1267 -96.4278 268° West 381 438 35,100 960 Climbing Kansas City Center
07:46AM 39.1233 -96.5586 268° West 383 441 36,200 1,140 Climbing Kansas City Center
07:47AM 39.1189 -96.7119 268° West 385 443 37,500 780 Climbing Kansas City Center
07:48AM 39.1150 -96.8444 268° West 385 443 37,800 240 Climbing Kansas City Center
07:49AM 39.1086 -96.9817 267° West 396 456 38,000 60 Climbing Kansas City Center
07:50AM 39.1033 -97.1481 268° West 412 474 38,000  Level Kansas City Center
07:51AM 39.0994 -97.2958 268° West 428 493 38,000  Level Kansas City Center
07:52AM 39.0942 -97.4403 267° West 424 488 38,000  Level Kansas City Center
07:53AM 39.0878 -97.6092 267° West 424 488 38,000  Level Kansas City Center
07:54AM 39.0822 -97.7542 267° West 424 488 38,000  Level Kansas City Center
07:55AM 39.0764 -97.8931 267° West 423 487 38,000  Level Kansas City Center
07:56AM 39.0703 -98.0453 267° West 425 489 38,000  Level Kansas City Center
07:57AM 39.0633 -98.2233 267° West 422 486 38,000  Level Kansas City Center
07:58AM 39.0561 -98.3744 267° West 424 488 38,000  Level Kansas City Center
07:59AM 39.0500 -98.5250 267° West 423 487 38,000  Level Kansas City Center
08:00AM 39.0422 -98.6769 266° West 427 491 38,000  Level Kansas City Center
08:01AM 39.0353 -98.8294 267° West 428 493 38,000  Level Kansas City Center
08:02AM 39.0300 -98.8992 264° West 428 493 38,000  Level Denver Center
08:03AM 39.0231 -99.0442 267° West 427 491 38,000  Level Denver Center
08:04AM 39.0153 -99.2183 267° West 435 501 38,000  Level Denver Center
08:05AM 39.0067 -99.3658 266° West 434 499 38,000  Level Denver Center
08:06AM 38.9983 -99.5128 266° West 433 498 38,000  Level Denver Center
08:07AM 38.9889 -99.6869 266° West 437 503 38,000  Level Denver Center
08:08AM 38.9806 -99.8333 266° West 434 499 38,000  Level Denver Center
08:09AM 38.9681 -100.0272 265° West 428 493 38,000  Level Denver Center
08:10AM 38.9594 -100.1772 266° West 437 503 38,000  Level Denver Center
08:11AM 38.9506 -100.3256 266° West 437 503 38,000  Level Denver Center
08:12AM 38.9397 -100.4967 265° West 433 498 38,000  Level Denver Center
08:13AM 38.9297 -100.6464 265° West 440 506 38,000  Level Denver Center
08:14AM 38.9194 -100.7981 265° West 444 511 38,000  Level Denver Center
08:15AM 38.9081 -100.9711 265° West 438 504 38,000  Level Denver Center
08:16AM 38.8981 -101.1203 265° West 439 505 38,000  Level Denver Center
08:17AM 38.8875 -101.2711 265° West 443 510 38,000  Level Denver Center
08:18AM 38.8767 -101.4219 265° West 444 511 38,000 -180 Level Denver Center
08:19AM 38.8642 -101.5981 265° West 445 512 37,700 -600 Descending Denver Center
08:20AM 38.8531 -101.7511 265° West 452 520 36,700 -1,020 Descending Denver Center
08:21AM 38.8472 -101.9531 268° West 449 517 35,500 -1,080 Descending Denver Center
08:22AM 38.8450 -102.1081 269° West 454 522 34,600 -780 Descending Denver Center
08:23AM 38.8019 -102.2531 249° West 461 531 34,000 -840 Descending Denver Center
08:24AM 38.7258 -102.4006 237° Southwest 445 512 33,000 -540 Descending Denver Center
08:25AM 38.6983 -102.5408 256° West 428 493 33,000  Level Denver Center
08:26AM 38.7439 -102.6717 294° West 428 493 33,000  Level Denver Center
08:27AM 38.8153 -102.8078 304° West 423 487 33,000  Level Denver Center
08:28AM 38.8794 -102.9300 304° West 430 495 33,000  Level Denver Center
08:29AM 38.9319 -103.0308 304° West 428 493 33,000  Level Denver Center
08:30AM 39.0150 -103.1914 304° West 423 487 33,000 -1,080 Level Denver Center
08:31AM 39.0764 -103.3103 304° West 417 480 30,900 -3,300 Descending Denver Center
08:32AM 39.1492 -103.4517 304° West 424 488 26,400 -4,080 Descending Denver Center
08:33AM 39.2136 -103.5794 303° West 440 506 22,700 -2,640 Descending Denver Center
08:34AM 39.2722 -103.6933 304° West 408 470 21,100 -2,100 Descending Denver Center
08:35AM 39.3328 -103.8128 303° West 362 417 18,500 -1,920 Descending Denver Center
08:36AM 39.3822 -103.9083 304° West 349 402 17,300 -840 Descending Denver Center
08:37AM 39.3972 -104.0183 280° West 301 346 16,800 -840 Descending Denver Center
08:38AM 39.4086 -104.1203 278° West 269 310 15,700 -1,200 Descending Denver Center
08:39AM 39.4653 -104.1547 335° Northwest 252 290 14,400 -1,260 Descending Denver Center
08:40AM 39.5347 -104.1522 North 251 289 13,200 -720 Descending Denver Center
08:41AM 39.6036 -104.1322 13° North 254 292 13,000 -240 Descending Denver Center
08:42AM 39.6711 -104.1225 North 253 291 12,800 -600 Descending Denver Center
08:43AM 39.7236 -104.1781 321° Northwest 249 287 11,900 -900 Descending Denver Center
08:45AM 39.7597 -104.2553 301° West 235 270 11,000 -1,020 Descending Denver Center
08:46AM 39.7922 -104.3258 301° West 230 265 9,900 -1,140 Descending Denver Center
08:47AM 39.8244 -104.3953 301° West 226 260 8,800 -1,020 Descending Denver Center
08:48AM 39.8578 -104.4683 301° West 234 269 7,900 -1,080 Descending Denver Center
08:49AM 39.8778 -104.5339 292° West 197 227 6,700 -1,080 Descending Denver Center
08:50AM 39.8767 -104.5942 269° West 159 183 5,800 -660 Descending Denver Center
08:51AM 39.8769 -104.6383 270° West 145 167 5,400 -420 Descending Denver Center
08:53AM 39.8500 -104.6667 199° South  Level FlightAware Approximate
09:00AM 39.8617 -104.6732 199° South  Level Estimated
09:01AM 39.8617 -104.6732 199° South  Level Estimated